createdAt,value
2019-02-17T00:02:11.013Z,12.83
2019-02-17T00:04:42.925Z,12.33
2019-02-17T00:07:14.990Z,16.87
2019-02-17T00:09:47.160Z,22.03
2019-02-17T00:12:19.167Z,20.73
2019-02-17T00:14:51.171Z,21.07
2019-02-17T00:17:23.164Z,19.93
2019-02-17T00:19:55.163Z,19.03
2019-02-17T00:22:27.162Z,18.30
2019-02-17T00:25:00.814Z,19.87
2019-02-17T00:27:32.896Z,18.93
2019-02-17T00:30:05.127Z,18.43
2019-02-17T00:32:37.010Z,13.87
2019-02-17T00:35:09.330Z,17.07
2019-02-17T00:37:41.204Z,15.97
2019-02-17T00:40:13.238Z,20.37
2019-02-17T00:42:46.213Z,19.17
2019-02-17T00:45:18.219Z,16.23
2019-02-17T00:47:50.218Z,21.50
2019-02-17T00:50:22.209Z,19.97
2019-02-17T00:52:54.100Z,21.00
2019-02-17T00:55:26.039Z,16.03
2019-02-17T00:57:57.943Z,16.47
2019-02-17T01:00:29.860Z,13.60
2019-02-17T01:03:01.780Z,17.67
2019-02-17T01:05:33.693Z,15.13
2019-02-17T01:08:05.605Z,13.70
2019-02-17T01:10:37.520Z,11.67
2019-02-17T01:13:09.429Z,12.90
2019-02-17T01:15:41.381Z,14.20
2019-02-17T01:18:13.293Z,12.83
2019-02-17T01:20:45.212Z,16.27
2019-02-17T01:23:17.147Z,14.00
2019-02-17T01:25:49.067Z,13.63
2019-02-17T01:28:20.980Z,16.37
2019-02-17T01:30:53.003Z,19.20
2019-02-17T01:33:24.995Z,21.60
2019-02-17T01:35:57.066Z,19.53
2019-02-17T01:38:29.135Z,25.23
2019-02-17T01:41:01.097Z,16.43
2019-02-17T01:43:33.427Z,18.43
2019-02-17T01:46:05.302Z,12.47
2019-02-17T01:48:37.198Z,20.90
2019-02-17T01:51:09.330Z,21.97
2019-02-17T01:53:41.397Z,20.33
2019-02-17T01:56:13.417Z,28.47
2019-02-17T01:58:45.411Z,24.03
2019-02-17T02:01:17.408Z,24.90
2019-02-17T02:03:49.469Z,17.93
2019-02-17T02:06:21.418Z,16.30
2019-02-17T02:08:53.335Z,19.13
2019-02-17T02:11:25.264Z,14.50
2019-02-17T02:13:57.301Z,18.57
2019-02-17T02:16:29.188Z,16.60
2019-02-17T02:19:01.319Z,16.10
2019-02-17T02:21:33.202Z,15.60
2019-02-17T02:24:05.213Z,14.63
2019-02-17T02:26:37.140Z,15.77
2019-02-17T02:29:09.068Z,16.73
2019-02-17T02:31:41.005Z,14.60
2019-02-17T02:34:12.915Z,14.37
2019-02-17T02:36:44.823Z,14.70
2019-02-17T02:39:16.735Z,17.47
2019-02-17T02:41:48.763Z,16.07
2019-02-17T02:44:20.639Z,14.73
2019-02-17T02:46:52.592Z,19.70
2019-02-17T02:49:24.627Z,15.67
2019-02-17T02:51:56.504Z,15.87
2019-02-17T02:54:28.457Z,13.60
2019-02-17T02:57:00.402Z,14.07
2019-02-17T02:59:32.656Z,13.73
2019-02-17T03:02:04.607Z,17.47
2019-02-17T03:04:36.516Z,15.07
2019-02-17T03:07:11.781Z,18.27
2019-02-17T03:09:43.846Z,19.63
2019-02-17T03:12:15.847Z,17.80
2019-02-17T03:14:48.237Z,12.57
2019-02-17T03:17:20.280Z,18.23
2019-02-17T03:19:52.230Z,13.93
2019-02-17T03:22:24.135Z,14.47
2019-02-17T03:24:56.181Z,19.27
2019-02-17T03:27:28.185Z,15.57
2019-02-17T03:30:04.941Z,14.07
2019-02-17T03:32:33.882Z,13.53
2019-02-17T03:35:06.118Z,12.40
2019-02-17T03:37:38.187Z,14.57
2019-02-17T03:40:10.478Z,18.87
2019-02-17T03:42:42.476Z,17.40
2019-02-17T03:45:14.571Z,14.37
2019-02-17T03:47:46.600Z,15.77
2019-02-17T03:50:18.606Z,16.43
2019-02-17T03:52:50.724Z,17.87
2019-02-17T03:55:22.783Z,18.77
2019-02-17T03:57:54.793Z,13.37
2019-02-17T04:00:26.785Z,13.90
2019-02-17T04:02:58.788Z,16.80
2019-02-17T04:05:30.874Z,17.30
2019-02-17T04:08:02.961Z,16.87
2019-02-17T04:10:35.034Z,14.83
2019-02-17T04:13:07.037Z,12.87
2019-02-17T04:15:39.256Z,15.70
2019-02-17T04:18:11.260Z,13.97
2019-02-17T04:20:43.527Z,16.83
2019-02-17T04:23:15.605Z,17.53
2019-02-17T04:25:47.616Z,12.67
2019-02-17T04:28:19.679Z,17.37
2019-02-17T04:30:51.658Z,15.23
2019-02-17T04:33:23.735Z,13.67
2019-02-17T04:35:55.775Z,13.63
2019-02-17T04:38:27.834Z,14.10
2019-02-17T04:40:59.800Z,19.07
2019-02-17T04:43:31.800Z,14.67
2019-02-17T04:46:03.866Z,15.13
2019-02-17T04:48:35.939Z,14.93
2019-02-17T04:51:07.985Z,14.03
2019-02-17T04:53:40.126Z,13.43
2019-02-17T04:56:12.209Z,18.67
2019-02-17T04:58:44.282Z,19.20
2019-02-17T05:01:16.349Z,12.77
2019-02-17T05:03:48.424Z,17.90
2019-02-17T05:06:20.394Z,17.50
2019-02-17T05:08:52.472Z,16.87
2019-02-17T05:11:24.557Z,17.50
2019-02-17T05:13:56.555Z,21.23
2019-02-17T05:16:28.554Z,17.77
2019-02-17T05:19:00.592Z,18.40
2019-02-17T05:21:32.603Z,20.60
2019-02-17T05:24:04.627Z,17.77
2019-02-17T05:26:36.716Z,18.87
2019-02-17T05:29:08.729Z,16.27
2019-02-17T05:31:40.817Z,21.00
2019-02-17T05:34:12.900Z,15.97
2019-02-17T05:36:44.905Z,17.70
2019-02-17T05:39:16.909Z,20.73
2019-02-17T05:41:48.988Z,19.63
2019-02-17T05:44:20.995Z,14.40
2019-02-17T05:46:53.091Z,12.63
2019-02-17T05:49:25.170Z,14.63
2019-02-17T05:51:57.244Z,18.00
2019-02-17T05:54:29.272Z,16.43
2019-02-17T05:57:01.415Z,17.63
2019-02-17T05:59:33.492Z,17.77
2019-02-17T06:02:05.496Z,15.83
2019-02-17T06:04:37.583Z,15.20
2019-02-17T06:07:09.652Z,17.13
2019-02-17T06:09:41.667Z,11.50
2019-02-17T06:12:13.679Z,12.10
2019-02-17T06:14:45.697Z,16.33
2019-02-17T06:17:17.719Z,18.90
2019-02-17T06:19:49.734Z,13.30
2019-02-17T06:22:21.823Z,17.07
2019-02-17T06:24:53.826Z,17.73
2019-02-17T06:27:25.835Z,20.97
2019-02-17T06:29:57.920Z,16.37
2019-02-17T06:32:30.028Z,16.67
2019-02-17T06:35:02.121Z,17.20
2019-02-17T06:37:34.220Z,19.60
2019-02-17T06:40:06.610Z,17.23
2019-02-17T06:42:38.676Z,14.50
2019-02-17T06:45:11.086Z,13.40
2019-02-17T06:47:43.167Z,15.57
2019-02-17T06:50:15.270Z,18.00
2019-02-17T06:52:47.352Z,21.70
2019-02-17T06:55:42.604Z,20.60
2019-02-17T06:58:14.600Z,19.27
2019-02-17T07:00:49.240Z,23.30
2019-02-17T07:03:21.331Z,20.33
2019-02-17T07:06:12.163Z,20.00
2019-02-17T07:08:44.235Z,21.53
2019-02-17T07:11:16.250Z,22.43
2019-02-17T07:13:48.255Z,19.73
2019-02-17T07:16:21.894Z,20.47
2019-02-17T07:18:53.966Z,20.57
2019-02-17T07:21:25.986Z,24.47
2019-02-17T07:23:58.108Z,18.70
2019-02-17T07:26:30.179Z,16.30
2019-02-17T07:29:02.061Z,15.23
2019-02-17T07:31:35.286Z,13.17
2019-02-17T07:34:07.493Z,15.53
2019-02-17T07:36:39.576Z,15.37
2019-02-17T07:39:11.577Z,12.93
2019-02-17T07:41:43.608Z,12.77
2019-02-17T07:44:15.677Z,10.10
2019-02-17T07:46:47.766Z,11.60
2019-02-17T07:49:19.858Z,12.40
2019-02-17T07:51:51.857Z,12.40
2019-02-17T07:54:23.888Z,12.17
2019-02-17T07:56:55.903Z,12.83
2019-02-17T07:59:27.987Z,11.93
2019-02-17T08:01:59.987Z,10.43
2019-02-17T08:04:31.988Z,12.03
2019-02-17T08:07:03.997Z,11.40
2019-02-17T08:09:36.198Z,13.40
2019-02-17T08:12:08.297Z,12.53
2019-02-17T08:14:40.401Z,13.30
2019-02-17T08:17:12.572Z,11.27
2019-02-17T08:19:44.645Z,12.43
2019-02-17T08:22:16.654Z,12.60
2019-02-17T08:24:48.666Z,13.83
2019-02-17T08:27:20.746Z,11.18
2019-02-17T08:29:52.747Z,11.50
2019-02-17T08:32:24.848Z,11.50
2019-02-17T08:34:56.848Z,10.50
2019-02-17T08:37:28.925Z,10.23
2019-02-17T08:40:00.932Z,11.33
2019-02-17T08:42:33.091Z,13.00
2019-02-17T08:45:05.251Z,12.37
2019-02-17T08:47:37.268Z,13.03
2019-02-17T08:50:10.864Z,12.77
2019-02-17T08:52:42.872Z,13.13
2019-02-17T08:55:14.923Z,13.88
2019-02-17T08:57:47.043Z,13.20
2019-02-17T09:00:19.106Z,15.10
2019-02-17T09:02:51.123Z,15.87
2019-02-17T09:05:23.288Z,17.43
2019-02-17T09:07:55.374Z,13.40
2019-02-17T09:10:27.377Z,14.97
2019-02-17T09:12:59.468Z,12.93
2019-02-17T09:15:31.473Z,15.40
2019-02-17T09:18:03.815Z,16.27
2019-02-17T09:20:35.961Z,18.03
2019-02-17T09:23:08.101Z,17.07
2019-02-17T09:25:42.041Z,16.20
2019-02-17T09:28:17.208Z,17.03
2019-02-17T09:30:51.398Z,14.40
2019-02-17T09:33:25.315Z,15.53
2019-02-17T09:35:59.070Z,14.27
2019-02-17T09:38:35.903Z,14.57
2019-02-17T09:41:11.267Z,14.87
2019-02-17T09:43:47.591Z,14.27
2019-02-17T09:46:21.605Z,13.23
2019-02-17T09:48:55.753Z,13.33
2019-02-17T09:51:33.474Z,11.53
2019-02-17T09:54:05.909Z,15.23
2019-02-17T09:56:38.371Z,16.17
2019-02-17T09:59:12.268Z,13.80
2019-02-17T10:01:46.824Z,12.60
2019-02-17T10:04:18.919Z,13.37
2019-02-17T10:06:50.924Z,13.43
2019-02-17T10:09:22.928Z,13.93
2019-02-17T10:11:54.965Z,12.67
2019-02-17T10:14:26.975Z,15.37
2019-02-17T10:16:59.005Z,17.80
2019-02-17T10:19:31.091Z,20.30
2019-02-17T10:22:03.188Z,15.40
2019-02-17T10:24:35.212Z,16.47
2019-02-17T10:27:07.251Z,16.43
2019-02-17T10:29:39.272Z,18.90
2019-02-17T10:32:11.278Z,17.47
2019-02-17T10:34:43.355Z,16.20
2019-02-17T10:37:15.391Z,14.50
2019-02-17T10:39:47.473Z,16.23
2019-02-17T10:42:19.491Z,14.00
2019-02-17T10:44:51.494Z,16.37
2019-02-17T10:47:24.048Z,16.93
2019-02-17T10:49:56.552Z,14.67
2019-02-17T10:52:29.057Z,15.10
2019-02-17T10:55:01.179Z,14.50
2019-02-17T10:57:33.202Z,16.30
2019-02-17T11:00:06.941Z,12.90
2019-02-17T11:02:46.643Z,15.93
2019-02-17T11:05:12.825Z,17.47
2019-02-17T11:07:44.826Z,14.90
2019-02-17T11:10:17.159Z,20.27
2019-02-17T11:12:49.230Z,16.80
2019-02-17T11:15:21.512Z,15.50
2019-02-17T11:17:53.587Z,16.17
2019-02-17T11:20:25.608Z,12.50
2019-02-17T11:22:57.615Z,12.80
2019-02-17T11:25:29.630Z,13.13
2019-02-17T11:28:01.632Z,13.13
2019-02-17T11:30:33.732Z,13.83
2019-02-17T11:33:05.861Z,14.57
2019-02-17T11:35:37.864Z,14.60
2019-02-17T11:38:09.935Z,15.00
2019-02-17T11:40:41.942Z,13.67
2019-02-17T11:43:13.952Z,14.40
2019-02-17T11:45:46.057Z,10.83
2019-02-17T11:48:18.044Z,9.70
2019-02-17T11:50:50.039Z,9.77
2019-02-17T11:53:22.052Z,14.13
2019-02-17T11:55:54.176Z,15.33
2019-02-17T11:58:26.180Z,8.27
2019-02-17T12:00:58.258Z,11.67
2019-02-17T12:03:30.263Z,10.83
2019-02-17T12:06:02.277Z,13.03
2019-02-17T12:08:34.349Z,10.60
2019-02-17T12:11:06.359Z,13.17
2019-02-17T12:13:38.371Z,9.10
2019-02-17T12:16:10.449Z,11.57
2019-02-17T12:18:42.524Z,10.43
2019-02-17T12:21:24.821Z,10.10
2019-02-17T12:24:17.211Z,10.67
2019-02-17T12:26:54.808Z,12.23
2019-02-17T12:29:33.850Z,12.00
2019-02-17T12:32:05.849Z,10.23
2019-02-17T12:34:37.857Z,12.30
2019-02-17T12:37:09.954Z,11.77
2019-02-17T12:39:41.945Z,12.17
2019-02-17T12:42:13.963Z,10.60
2019-02-17T12:44:46.038Z,11.60
2019-02-17T12:47:18.048Z,14.37
2019-02-17T12:49:50.047Z,9.37
2019-02-17T12:52:22.123Z,12.10
2019-02-17T12:54:54.162Z,11.40
2019-02-17T12:57:26.196Z,11.97
2019-02-17T12:59:58.184Z,11.50
2019-02-17T13:02:30.191Z,12.57
2019-02-17T13:05:02.554Z,10.63
2019-02-17T13:07:34.656Z,11.40
2019-02-17T13:10:07.172Z,12.30
2019-02-17T13:12:39.177Z,10.83
2019-02-17T13:15:12.399Z,11.47
2019-02-17T13:17:44.418Z,11.67
2019-02-17T13:20:16.530Z,10.63
2019-02-17T13:22:48.537Z,10.10
2019-02-17T13:25:20.548Z,13.13
2019-02-17T13:27:52.591Z,10.57
2019-02-17T13:30:24.647Z,11.27
2019-02-17T13:32:56.863Z,10.47
2019-02-17T13:35:29.042Z,10.80
2019-02-17T13:38:01.250Z,11.97
2019-02-17T13:40:33.324Z,10.67
2019-02-17T13:43:05.409Z,10.90
2019-02-17T13:45:37.490Z,11.17
2019-02-17T13:48:09.483Z,13.07
2019-02-17T13:50:41.476Z,11.07
2019-02-17T13:53:13.478Z,9.77
2019-02-17T13:55:45.583Z,9.13
2019-02-17T13:58:17.586Z,5.77
2019-02-17T14:00:49.580Z,7.50
2019-02-17T14:03:21.588Z,10.40
2019-02-17T14:05:53.587Z,10.83
2019-02-17T14:08:25.597Z,8.83
2019-02-17T14:10:57.601Z,8.50
2019-02-17T14:13:29.605Z,10.03
2019-02-17T14:16:01.686Z,7.97
2019-02-17T14:18:33.703Z,6.87
2019-02-17T14:21:05.882Z,11.73
2019-02-17T14:23:37.888Z,9.47
2019-02-17T14:26:09.882Z,7.77
2019-02-17T14:28:41.883Z,8.87
2019-02-17T14:31:13.873Z,9.80
2019-02-17T14:33:45.875Z,7.27
2019-02-17T14:36:17.865Z,5.53
2019-02-17T14:38:49.854Z,6.80
2019-02-17T14:41:21.852Z,6.03
2019-02-17T14:43:53.853Z,5.77
2019-02-17T14:46:25.851Z,10.23
2019-02-17T14:48:57.922Z,8.57
2019-02-17T14:51:29.916Z,10.43
2019-02-17T14:54:01.999Z,11.63
2019-02-17T14:56:34.031Z,10.63
2019-02-17T14:59:06.321Z,12.93
2019-02-17T15:01:38.403Z,10.20
2019-02-17T15:04:10.487Z,8.00
2019-02-17T15:06:42.481Z,8.67
2019-02-17T15:09:14.477Z,8.73
2019-02-17T15:11:46.545Z,6.53
2019-02-17T15:14:18.540Z,7.53
2019-02-17T15:16:50.538Z,8.07
2019-02-17T15:19:22.536Z,8.07
2019-02-17T15:21:54.530Z,6.97
2019-02-17T15:24:26.531Z,9.87
2019-02-17T15:26:58.526Z,5.57
2019-02-17T15:29:31.790Z,10.73
2019-02-17T15:32:03.916Z,9.60
2019-02-17T15:34:35.919Z,5.53
2019-02-17T15:37:07.976Z,5.97
2019-02-17T15:39:39.969Z,8.13
2019-02-17T15:42:11.967Z,8.77
2019-02-17T15:44:44.007Z,7.40
2019-02-17T15:47:16.081Z,6.67
2019-02-17T15:49:48.157Z,7.67
2019-02-17T15:52:20.150Z,6.93
2019-02-17T15:54:52.188Z,6.77
2019-02-17T15:57:24.188Z,5.93
2019-02-17T15:59:56.261Z,9.27
2019-02-17T16:02:28.271Z,11.70
2019-02-17T16:05:00.956Z,8.67
2019-02-17T16:07:33.151Z,9.33
2019-02-17T16:10:05.887Z,8.27
2019-02-17T16:12:37.884Z,8.50
2019-02-17T16:15:13.292Z,7.47
2019-02-17T16:17:45.366Z,8.57
2019-02-17T16:20:17.379Z,5.90
2019-02-17T16:22:49.382Z,5.53
2019-02-17T16:25:21.388Z,4.57
2019-02-17T16:27:53.375Z,3.10
2019-02-17T16:30:25.473Z,4.43
2019-02-17T16:32:57.467Z,5.23
2019-02-17T16:35:29.479Z,4.27
2019-02-17T16:38:01.541Z,4.10
2019-02-17T16:40:33.533Z,5.77
2019-02-17T16:43:05.621Z,6.03
2019-02-17T16:45:37.616Z,5.13
2019-02-17T16:48:09.607Z,5.80
2019-02-17T16:50:41.607Z,5.40
2019-02-17T16:53:13.750Z,4.87
2019-02-17T16:55:45.854Z,4.20
2019-02-17T16:58:17.904Z,4.83
2019-02-17T17:00:49.909Z,3.07
2019-02-17T17:03:21.907Z,4.70
2019-02-17T17:05:53.907Z,5.43
2019-02-17T17:08:25.907Z,7.07
2019-02-17T17:10:57.916Z,7.13
2019-02-17T17:13:31.507Z,7.00
2019-02-17T17:16:03.423Z,6.70
2019-02-17T17:18:35.553Z,11.33
2019-02-17T17:21:07.649Z,11.07
2019-02-17T17:23:39.528Z,8.57
2019-02-17T17:26:11.654Z,10.10
2019-02-17T17:28:43.657Z,9.97
2019-02-17T17:31:15.730Z,9.27
2019-02-17T17:33:47.992Z,9.00
2019-02-17T17:36:19.887Z,7.43
2019-02-17T17:38:51.806Z,6.03
2019-02-17T17:41:23.732Z,6.90
2019-02-17T17:43:55.630Z,9.43
2019-02-17T17:46:27.552Z,8.73
2019-02-17T17:48:59.453Z,7.37
2019-02-17T17:51:31.376Z,8.57
2019-02-17T17:54:03.338Z,6.97
2019-02-17T17:56:35.242Z,7.90
2019-02-17T17:59:07.162Z,7.73
2019-02-17T18:01:39.095Z,10.20
2019-02-17T18:04:11.016Z,12.70
2019-02-17T18:06:42.935Z,12.73
2019-02-17T18:09:14.842Z,12.77
2019-02-17T18:11:46.987Z,14.10
2019-02-17T18:14:18.868Z,11.30
2019-02-17T18:16:50.797Z,13.00
2019-02-17T18:19:22.717Z,10.27
2019-02-17T18:21:54.634Z,10.87
2019-02-17T18:24:26.854Z,11.67
2019-02-17T18:26:58.884Z,14.17
2019-02-17T18:29:30.807Z,9.70
2019-02-17T18:32:02.723Z,8.97
2019-02-17T18:34:34.647Z,10.20
2019-02-17T18:37:06.576Z,9.27
2019-02-17T18:39:38.587Z,9.23
2019-02-17T18:42:10.504Z,8.77
2019-02-17T18:44:42.407Z,7.17
2019-02-17T18:47:14.324Z,10.00
2019-02-17T18:49:47.159Z,9.40
2019-02-17T18:52:19.120Z,10.93
2019-02-17T18:54:51.072Z,9.17
2019-02-17T18:57:23.076Z,10.87
2019-02-17T18:59:55.065Z,10.40
2019-02-17T19:02:26.990Z,10.47
2019-02-17T19:04:58.908Z,12.03
2019-02-17T19:07:30.828Z,12.53
2019-02-17T19:10:02.843Z,15.87
2019-02-17T19:12:34.767Z,11.63
2019-02-17T19:15:07.165Z,11.73
2019-02-17T19:17:39.089Z,10.37
2019-02-17T19:20:14.160Z,9.97
2019-02-17T19:22:46.079Z,10.23
2019-02-17T19:25:18.016Z,9.30
2019-02-17T19:27:49.949Z,11.13
2019-02-17T19:30:21.851Z,10.47
2019-02-17T19:32:53.813Z,11.80
2019-02-17T19:35:25.715Z,12.07
2019-02-17T19:37:57.640Z,9.13
2019-02-17T19:40:29.550Z,12.90
2019-02-17T19:43:03.476Z,11.00
2019-02-17T19:45:35.094Z,15.03
2019-02-17T19:48:07.257Z,16.37
2019-02-17T19:50:39.216Z,15.43
2019-02-17T19:53:11.152Z,15.63
2019-02-17T19:55:43.092Z,12.73
2019-02-17T19:58:15.017Z,12.23
2019-02-17T20:00:46.930Z,9.07
2019-02-17T20:03:27.136Z,13.13
2019-02-17T20:06:00.896Z,13.40
2019-02-17T20:08:32.807Z,14.70
2019-02-17T20:11:04.727Z,13.13
2019-02-17T20:13:36.645Z,12.63
2019-02-17T20:16:08.565Z,12.33
2019-02-17T20:18:40.480Z,13.27
2019-02-17T20:21:12.384Z,13.40
2019-02-17T20:23:46.104Z,12.70
2019-02-17T20:26:18.023Z,11.67
2019-02-17T20:28:50.041Z,11.43
2019-02-17T20:31:21.956Z,9.67
2019-02-17T20:33:53.906Z,16.10
2019-02-17T20:36:25.840Z,11.20
2019-02-17T20:38:57.776Z,10.10
2019-02-17T20:41:29.697Z,7.30
2019-02-17T20:44:01.615Z,12.17
2019-02-17T20:46:33.560Z,13.20
2019-02-17T20:49:05.487Z,10.77
2019-02-17T20:51:37.395Z,10.93
2019-02-17T20:54:09.336Z,13.43
2019-02-17T20:56:41.291Z,11.20
2019-02-17T20:59:13.206Z,10.97
2019-02-17T21:01:45.112Z,9.53
2019-02-17T21:04:17.042Z,9.87
2019-02-17T21:06:48.959Z,9.97
2019-02-17T21:09:20.994Z,8.77
2019-02-17T21:11:53.139Z,13.70
2019-02-17T21:14:25.057Z,11.63
2019-02-17T21:16:56.968Z,8.23
2019-02-17T21:19:28.890Z,10.13
2019-02-17T21:22:00.805Z,11.37
2019-02-17T21:24:32.747Z,10.57
2019-02-17T21:27:04.681Z,11.80
2019-02-17T21:29:36.701Z,13.43
2019-02-17T21:32:08.621Z,10.07
2019-02-17T21:34:40.549Z,11.30
2019-02-17T21:37:12.487Z,10.90
2019-02-17T21:39:44.398Z,9.30
2019-02-17T21:42:16.373Z,10.43
2019-02-17T21:44:48.282Z,9.60
2019-02-17T21:47:20.189Z,14.93
2019-02-17T21:49:52.112Z,13.43
2019-02-17T21:52:24.025Z,9.30
2019-02-17T21:54:55.979Z,13.73
2019-02-17T21:57:27.888Z,10.37
2019-02-17T21:59:59.815Z,9.90
2019-02-17T22:02:31.735Z,6.73
2019-02-17T22:05:03.654Z,9.17
2019-02-17T22:07:35.581Z,10.67
2019-02-17T22:10:08.615Z,9.37
2019-02-17T22:12:40.802Z,10.47
2019-02-17T22:15:15.125Z,11.93
2019-02-17T22:17:47.048Z,11.93
2019-02-17T22:20:19.077Z,14.27
2019-02-17T22:22:51.001Z,12.60
2019-02-17T22:25:22.934Z,12.53
2019-02-17T22:27:54.859Z,12.60
2019-02-17T22:30:26.784Z,11.00
2019-02-17T22:32:58.703Z,12.50
2019-02-17T22:35:30.823Z,14.90
2019-02-17T22:38:02.738Z,12.13
2019-02-17T22:40:34.685Z,15.10
2019-02-17T22:43:06.598Z,13.90
2019-02-17T22:45:38.542Z,15.17
2019-02-17T22:48:10.461Z,13.27
2019-02-17T22:50:42.704Z,14.40
2019-02-17T22:53:14.621Z,12.67
2019-02-17T22:55:46.575Z,16.37
2019-02-17T22:58:18.497Z,13.07
2019-02-17T23:00:59.630Z,13.03
2019-02-17T23:03:32.399Z,12.53
2019-02-17T23:06:04.526Z,14.97
2019-02-17T23:08:36.438Z,10.77
2019-02-17T23:11:08.365Z,14.33
2019-02-17T23:13:40.291Z,15.50
2019-02-17T23:16:12.208Z,16.97
2019-02-17T23:18:44.696Z,13.23
2019-02-17T23:21:16.629Z,16.00
2019-02-17T23:23:48.549Z,13.50
2019-02-17T23:26:20.471Z,13.17
2019-02-17T23:28:52.388Z,10.53
2019-02-17T23:31:24.305Z,10.03
2019-02-17T23:33:56.218Z,9.37
2019-02-17T23:36:28.135Z,7.93
2019-02-17T23:39:00.055Z,11.03
2019-02-17T23:41:31.978Z,9.17
2019-02-17T23:44:03.918Z,9.87
2019-02-17T23:46:35.847Z,13.50
2019-02-17T23:49:07.762Z,9.53
2019-02-17T23:51:40.098Z,8.13
2019-02-17T23:54:12.015Z,10.43
2019-02-17T23:56:44.056Z,10.40
2019-02-17T23:59:15.999Z,10.53
